Rogers Park, Illinois
Current Conditions -  °F | °C
As of 6:51 PM on Thursday 18 Dec 2014 (Local Time) from KORD Reporting Station
Overcast Overcast  
Wind Chill: 21°   Ceiling: 2600
Heat Index: 28°   Visibility: 10mi
Dew Point: 19°   Wind: 7mph
Humidity: 69%   Direction: 10°N
Pressure: 30.24"   Gusts: NA
Location:  41.991°N, 87.6654°W
Report Text: KORD 190051Z 01006KT 10SM OVC026 M02/M07 A3024 RMK AO2 SLP251 T10221072
Loading
Personal Weather Stations






























Interactive Weather Map New forecast layout! Learn more

10-Day Weather Forecast

Advertisements
Track Severe Weather on mobile